sensor_id;sensor_type;location;lat;lon;timestamp;pressure;altitude;pressure_sealevel;temperature;humidity
29815;BME280;16708;50.426;7.664;2023-02-02T00:04:37;991.89;;;6.18;100.00
29815;BME280;16708;50.426;7.664;2023-02-02T00:19:16;991.88;;;6.31;100.00
29815;BME280;16708;50.426;7.664;2023-02-02T00:33:49;991.90;;;6.25;100.00
29815;BME280;16708;50.426;7.664;2023-02-02T00:48:25;991.97;;;6.26;100.00
29815;BME280;16708;50.426;7.664;2023-02-02T01:03:04;992.07;;;6.29;100.00
29815;BME280;16708;50.426;7.664;2023-02-02T01:17:42;991.91;;;6.29;100.00
29815;BME280;16708;50.426;7.664;2023-02-02T01:32:20;991.89;;;6.32;100.00
29815;BME280;16708;50.426;7.664;2023-02-02T01:46:55;991.81;;;6.18;100.00
29815;BME280;16708;50.426;7.664;2023-02-02T02:01:32;991.97;;;6.11;100.00
29815;BME280;16708;50.426;7.664;2023-02-02T02:30:43;992.19;;;5.33;100.00
29815;BME280;16708;50.426;7.664;2023-02-02T02:45:16;992.20;;;5.25;100.00
29815;BME280;16708;50.426;7.664;2023-02-02T02:59:53;992.30;;;5.20;100.00
29815;BME280;16708;50.426;7.664;2023-02-02T03:14:31;992.24;;;5.18;100.00
29815;BME280;16708;50.426;7.664;2023-02-02T03:29:10;992.14;;;5.09;100.00
29815;BME280;16708;50.426;7.664;2023-02-02T03:43:45;992.18;;;5.02;100.00
29815;BME280;16708;50.426;7.664;2023-02-02T03:58:24;992.21;;;4.97;100.00
29815;BME280;16708;50.426;7.664;2023-02-02T04:13:00;992.35;;;5.04;100.00
29815;BME280;16708;50.426;7.664;2023-02-02T04:27:37;992.47;;;4.90;100.00
29815;BME280;16708;50.426;7.664;2023-02-02T04:42:13;992.54;;;4.92;100.00
29815;BME280;16708;50.426;7.664;2023-02-02T04:56:50;992.60;;;5.01;100.00
29815;BME280;16708;50.426;7.664;2023-02-02T05:11:24;992.78;;;5.01;100.00
29815;BME280;16708;50.426;7.664;2023-02-02T05:26:01;992.90;;;5.02;100.00
29815;BME280;16708;50.426;7.664;2023-02-02T05:40:37;992.95;;;4.96;100.00
29815;BME280;16708;50.426;7.664;2023-02-02T05:55:02;993.03;;;4.95;100.00
29815;BME280;16708;50.426;7.664;2023-02-02T06:09:36;992.98;;;4.89;100.00
29815;BME280;16708;50.426;7.664;2023-02-02T06:24:13;992.98;;;5.00;100.00
29815;BME280;16708;50.426;7.664;2023-02-02T06:38:44;992.93;;;4.98;100.00
29815;BME280;16708;50.426;7.664;2023-02-02T06:53:22;993.22;;;5.02;100.00
29815;BME280;16708;50.426;7.664;2023-02-02T07:07:55;993.43;;;4.99;100.00
29815;BME280;16708;50.426;7.664;2023-02-02T07:22:34;993.43;;;5.07;100.00
29815;BME280;16708;50.426;7.664;2023-02-02T07:37:11;993.44;;;5.05;100.00
29815;BME280;16708;50.426;7.664;2023-02-02T07:51:34;993.39;;;5.12;100.00
29815;BME280;16708;50.426;7.664;2023-02-02T08:06:08;993.55;;;5.14;100.00
29815;BME280;16708;50.426;7.664;2023-02-02T08:20:47;993.64;;;5.12;100.00
29815;BME280;16708;50.426;7.664;2023-02-02T08:35:24;993.72;;;5.21;100.00
29815;BME280;16708;50.426;7.664;2023-02-02T08:50:00;993.82;;;5.27;100.00
29815;BME280;16708;50.426;7.664;2023-02-02T09:04:39;993.90;;;5.29;100.00
29815;BME280;16708;50.426;7.664;2023-02-02T09:19:15;993.94;;;5.33;100.00
29815;BME280;16708;50.426;7.664;2023-02-02T09:33:52;994.02;;;5.44;100.00
29815;BME280;16708;50.426;7.664;2023-02-02T09:48:30;994.31;;;5.58;100.00
29815;BME280;16708;50.426;7.664;2023-02-02T10:03:05;994.41;;;5.61;100.00
29815;BME280;16708;50.426;7.664;2023-02-02T11:01:23;994.66;;;5.99;100.00
29815;BME280;16708;50.426;7.664;2023-02-02T11:45:17;994.75;;;6.40;100.00
29815;BME280;16708;50.426;7.664;2023-02-02T11:59:55;994.66;;;6.44;100.00
29815;BME280;16708;50.426;7.664;2023-02-02T13:12:55;994.82;;;7.05;100.00
29815;BME280;16708;50.426;7.664;2023-02-02T13:27:32;994.92;;;7.00;100.00
29815;BME280;16708;50.426;7.664;2023-02-02T13:42:11;995.07;;;6.98;100.00
29815;BME280;16708;50.426;7.664;2023-02-02T14:11:26;995.15;;;6.98;100.00
29815;BME280;16708;50.426;7.664;2023-02-02T14:40:37;995.35;;;7.20;100.00
29815;BME280;16708;50.426;7.664;2023-02-02T14:55:13;995.29;;;7.29;100.00
29815;BME280;16708;50.426;7.664;2023-02-02T15:09:50;995.36;;;7.28;100.00
29815;BME280;16708;50.426;7.664;2023-02-02T15:24:24;995.58;;;7.32;100.00
29815;BME280;16708;50.426;7.664;2023-02-02T15:53:30;995.89;;;7.32;100.00
29815;BME280;16708;50.426;7.664;2023-02-02T16:08:08;996.09;;;7.28;100.00
29815;BME280;16708;50.426;7.664;2023-02-02T16:22:46;996.08;;;7.18;100.00
29815;BME280;16708;50.426;7.664;2023-02-02T16:51:51;996.41;;;7.24;100.00
29815;BME280;16708;50.426;7.664;2023-02-02T17:21:02;996.72;;;7.39;100.00
29815;BME280;16708;50.426;7.664;2023-02-02T17:35:32;996.87;;;7.08;100.00
29815;BME280;16708;50.426;7.664;2023-02-02T17:50:10;996.94;;;7.03;100.00
29815;BME280;16708;50.426;7.664;2023-02-02T18:04:46;996.94;;;6.97;100.00
29815;BME280;16708;50.426;7.664;2023-02-02T18:19:19;996.93;;;6.93;100.00
29815;BME280;16708;50.426;7.664;2023-02-02T18:33:58;997.12;;;6.95;100.00
29815;BME280;16708;50.426;7.664;2023-02-02T18:48:36;997.24;;;6.82;100.00
29815;BME280;16708;50.426;7.664;2023-02-02T19:03:14;997.15;;;6.74;100.00
29815;BME280;16708;50.426;7.664;2023-02-02T19:32:26;997.16;;;6.62;100.00
29815;BME280;16708;50.426;7.664;2023-02-02T20:01:42;997.23;;;6.62;100.00
29815;BME280;16708;50.426;7.664;2023-02-02T20:16:19;997.40;;;6.56;100.00
29815;BME280;16708;50.426;7.664;2023-02-02T20:45:37;997.48;;;6.44;100.00
29815;BME280;16708;50.426;7.664;2023-02-02T21:00:08;997.62;;;6.38;100.00
29815;BME280;16708;50.426;7.664;2023-02-02T21:14:46;997.54;;;6.32;100.00
29815;BME280;16708;50.426;7.664;2023-02-02T21:29:24;997.56;;;6.33;100.00
29815;BME280;16708;50.426;7.664;2023-02-02T22:42:29;997.77;;;6.10;100.00
29815;BME280;16708;50.426;7.664;2023-02-02T22:57:06;997.90;;;5.93;100.00
29815;BME280;16708;50.426;7.664;2023-02-02T23:11:44;997.75;;;5.96;100.00
29815;BME280;16708;50.426;7.664;2023-02-02T23:26:23;997.71;;;5.97;100.00
29815;BME280;16708;50.426;7.664;2023-02-02T23:41:02;997.97;;;6.00;100.00
29815;BME280;16708;50.426;7.664;2023-02-02T23:55:41;997.71;;;5.96;100.00
